sensor_id;sensor_type;location;lat;lon;timestamp;temperature;humidity
71039;SHT30;58692;43.212;27.908;2023-08-20T00:01:25;25.50;65.47
71039;SHT30;58692;43.212;27.908;2023-08-20T00:03:51;25.56;65.66
71039;SHT30;58692;43.212;27.908;2023-08-20T00:06:18;25.60;66.83
71039;SHT30;58692;43.212;27.908;2023-08-20T00:08:43;25.60;66.89
71039;SHT30;58692;43.212;27.908;2023-08-20T00:11:10;25.39;67.85
71039;SHT30;58692;43.212;27.908;2023-08-20T00:13:36;25.47;67.85
71039;SHT30;58692;43.212;27.908;2023-08-20T00:16:02;25.20;68.52
71039;SHT30;58692;43.212;27.908;2023-08-20T00:18:28;24.91;69.86
71039;SHT30;58692;43.212;27.908;2023-08-20T00:20:54;24.69;70.60
71039;SHT30;58692;43.212;27.908;2023-08-20T00:23:20;24.69;70.59
71039;SHT30;58692;43.212;27.908;2023-08-20T00:25:47;24.72;70.71
71039;SHT30;58692;43.212;27.908;2023-08-20T00:28:12;24.76;68.85
71039;SHT30;58692;43.212;27.908;2023-08-20T00:30:38;24.78;69.58
71039;SHT30;58692;43.212;27.908;2023-08-20T00:33:03;24.67;69.71
71039;SHT30;58692;43.212;27.908;2023-08-20T00:35:29;24.54;69.92
71039;SHT30;58692;43.212;27.908;2023-08-20T00:37:54;24.63;70.20
71039;SHT30;58692;43.212;27.908;2023-08-20T00:40:20;24.58;71.21
71039;SHT30;58692;43.212;27.908;2023-08-20T00:42:45;24.21;71.57
71039;SHT30;58692;43.212;27.908;2023-08-20T00:45:11;24.21;71.44
71039;SHT30;58692;43.212;27.908;2023-08-20T00:47:37;24.14;71.95
71039;SHT30;58692;43.212;27.908;2023-08-20T00:50:04;24.21;71.35
71039;SHT30;58692;43.212;27.908;2023-08-20T00:52:31;24.25;71.07
71039;SHT30;58692;43.212;27.908;2023-08-20T00:54:57;24.14;71.07
71039;SHT30;58692;43.212;27.908;2023-08-20T00:57:23;24.16;71.01
71039;SHT30;58692;43.212;27.908;2023-08-20T00:59:50;24.09;70.89
71039;SHT30;58692;43.212;27.908;2023-08-20T01:02:17;24.02;71.46
71039;SHT30;58692;43.212;27.908;2023-08-20T01:04:43;24.00;72.06
71039;SHT30;58692;43.212;27.908;2023-08-20T01:07:24;23.87;73.07
71039;SHT30;58692;43.212;27.908;2023-08-20T01:12:34;24.10;71.97
71039;SHT30;58692;43.212;27.908;2023-08-20T01:15:00;23.99;72.02
71039;SHT30;58692;43.212;27.908;2023-08-20T01:17:26;24.07;72.13
71039;SHT30;58692;43.212;27.908;2023-08-20T01:19:51;24.12;71.65
71039;SHT30;58692;43.212;27.908;2023-08-20T01:30:51;23.82;72.60
71039;SHT30;58692;43.212;27.908;2023-08-20T01:33:19;23.43;73.93
71039;SHT30;58692;43.212;27.908;2023-08-20T01:35:45;23.63;73.09
71039;SHT30;58692;43.212;27.908;2023-08-20T01:38:10;23.72;72.67
71039;SHT30;58692;43.212;27.908;2023-08-20T01:40:36;23.73;72.50
71039;SHT30;58692;43.212;27.908;2023-08-20T01:43:01;23.62;73.06
71039;SHT30;58692;43.212;27.908;2023-08-20T01:45:27;23.48;73.62
71039;SHT30;58692;43.212;27.908;2023-08-20T01:47:52;23.62;73.10
71039;SHT30;58692;43.212;27.908;2023-08-20T01:50:18;23.42;73.49
71039;SHT30;58692;43.212;27.908;2023-08-20T01:52:44;23.28;74.01
71039;SHT30;58692;43.212;27.908;2023-08-20T01:55:11;23.39;73.54
71039;SHT30;58692;43.212;27.908;2023-08-20T01:57:37;23.41;73.08
71039;SHT30;58692;43.212;27.908;2023-08-20T02:00:03;23.26;73.18
71039;SHT30;58692;43.212;27.908;2023-08-20T02:02:32;23.28;72.99
71039;SHT30;58692;43.212;27.908;2023-08-20T02:04:59;23.16;73.36
71039;SHT30;58692;43.212;27.908;2023-08-20T02:07:25;23.19;73.30
71039;SHT30;58692;43.212;27.908;2023-08-20T02:09:50;23.08;73.90
71039;SHT30;58692;43.212;27.908;2023-08-20T02:12:16;23.23;73.63
71039;SHT30;58692;43.212;27.908;2023-08-20T02:14:41;23.15;74.20
71039;SHT30;58692;43.212;27.908;2023-08-20T02:17:07;23.14;74.16
71039;SHT30;58692;43.212;27.908;2023-08-20T02:19:33;22.99;74.69
71039;SHT30;58692;43.212;27.908;2023-08-20T02:21:59;23.07;74.66
71039;SHT30;58692;43.212;27.908;2023-08-20T02:24:24;23.07;74.72
71039;SHT30;58692;43.212;27.908;2023-08-20T02:26:49;23.11;74.90
71039;SHT30;58692;43.212;27.908;2023-08-20T02:29:15;22.95;75.32
71039;SHT30;58692;43.212;27.908;2023-08-20T02:31:40;22.84;75.16
71039;SHT30;58692;43.212;27.908;2023-08-20T02:34:06;22.84;75.24
71039;SHT30;58692;43.212;27.908;2023-08-20T02:36:31;22.87;74.98
71039;SHT30;58692;43.212;27.908;2023-08-20T02:38:57;23.07;74.40
71039;SHT30;58692;43.212;27.908;2023-08-20T02:41:22;23.08;73.50
71039;SHT30;58692;43.212;27.908;2023-08-20T02:43:48;22.88;74.12
71039;SHT30;58692;43.212;27.908;2023-08-20T02:46:14;23.07;73.45
71039;SHT30;58692;43.212;27.908;2023-08-20T02:48:40;23.21;72.97
71039;SHT30;58692;43.212;27.908;2023-08-20T02:51:05;23.29;72.54
71039;SHT30;58692;43.212;27.908;2023-08-20T02:53:30;23.45;72.11
71039;SHT30;58692;43.212;27.908;2023-08-20T02:55:56;23.52;71.87
71039;SHT30;58692;43.212;27.908;2023-08-20T02:58:22;23.50;71.73
71039;SHT30;58692;43.212;27.908;2023-08-20T03:00:47;23.19;72.83
71039;SHT30;58692;43.212;27.908;2023-08-20T03:03:13;23.32;72.41
71039;SHT30;58692;43.212;27.908;2023-08-20T03:05:39;23.07;73.22
71039;SHT30;58692;43.212;27.908;2023-08-20T03:08:05;23.07;73.17
71039;SHT30;58692;43.212;27.908;2023-08-20T03:10:31;23.19;72.84
71039;SHT30;58692;43.212;27.908;2023-08-20T03:12:58;23.32;72.68
71039;SHT30;58692;43.212;27.908;2023-08-20T03:15:24;23.22;73.16
71039;SHT30;58692;43.212;27.908;2023-08-20T03:17:49;23.29;72.93
71039;SHT30;58692;43.212;27.908;2023-08-20T03:20:15;23.33;72.85
71039;SHT30;58692;43.212;27.908;2023-08-20T03:22:40;23.33;72.99
71039;SHT30;58692;43.212;27.908;2023-08-20T03:25:06;23.31;73.22
71039;SHT30;58692;43.212;27.908;2023-08-20T03:27:32;23.15;73.68
71039;SHT30;58692;43.212;27.908;2023-08-20T03:29:57;23.32;73.36
71039;SHT30;58692;43.212;27.908;2023-08-20T03:32:23;23.08;74.35
71039;SHT30;58692;43.212;27.908;2023-08-20T03:34:52;23.23;73.98
71039;SHT30;58692;43.212;27.908;2023-08-20T03:37:19;23.09;74.20
71039;SHT30;58692;43.212;27.908;2023-08-20T03:39:45;22.94;74.90
71039;SHT30;58692;43.212;27.908;2023-08-20T03:42:10;23.01;74.74
71039;SHT30;58692;43.212;27.908;2023-08-20T03:44:36;23.12;74.13
71039;SHT30;58692;43.212;27.908;2023-08-20T03:47:02;22.95;74.27
71039;SHT30;58692;43.212;27.908;2023-08-20T03:49:27;22.83;74.53
71039;SHT30;58692;43.212;27.908;2023-08-20T03:51:53;22.86;74.56
71039;SHT30;58692;43.212;27.908;2023-08-20T03:54:18;23.04;74.02
71039;SHT30;58692;43.212;27.908;2023-08-20T03:56:43;22.80;74.71
71039;SHT30;58692;43.212;27.908;2023-08-20T03:59:09;22.86;74.57
71039;SHT30;58692;43.212;27.908;2023-08-20T04:01:34;23.07;73.71
71039;SHT30;58692;43.212;27.908;2023-08-20T04:04:03;23.07;73.77
71039;SHT30;58692;43.212;27.908;2023-08-20T04:06:29;23.32;72.81
71039;SHT30;58692;43.212;27.908;2023-08-20T04:08:55;23.55;72.18
71039;SHT30;58692;43.212;27.908;2023-08-20T04:11:20;23.89;71.30
71039;SHT30;58692;43.212;27.908;2023-08-20T04:13:46;23.82;71.37
71039;SHT30;58692;43.212;27.908;2023-08-20T04:16:11;23.84;71.47
71039;SHT30;58692;43.212;27.908;2023-08-20T04:18:37;23.99;71.13
71039;SHT30;58692;43.212;27.908;2023-08-20T04:21:02;24.27;70.17
71039;SHT30;58692;43.212;27.908;2023-08-20T04:23:28;24.43;69.92
71039;SHT30;58692;43.212;27.908;2023-08-20T04:25:53;24.79;68.83
71039;SHT30;58692;43.212;27.908;2023-08-20T04:28:19;24.69;69.10
71039;SHT30;58692;43.212;27.908;2023-08-20T04:30:44;24.94;68.74
71039;SHT30;58692;43.212;27.908;2023-08-20T04:33:10;24.91;68.79
71039;SHT30;58692;43.212;27.908;2023-08-20T04:35:35;25.06;68.22
71039;SHT30;58692;43.212;27.908;2023-08-20T04:38:02;25.33;67.67
71039;SHT30;58692;43.212;27.908;2023-08-20T04:40:27;25.35;67.89
71039;SHT30;58692;43.212;27.908;2023-08-20T04:42:53;25.53;67.55
71039;SHT30;58692;43.212;27.908;2023-08-20T04:45:19;25.51;67.39
71039;SHT30;58692;43.212;27.908;2023-08-20T04:47:46;25.71;66.32
71039;SHT30;58692;43.212;27.908;2023-08-20T04:50:12;25.97;65.49
71039;SHT30;58692;43.212;27.908;2023-08-20T04:52:38;26.58;63.51
71039;SHT30;58692;43.212;27.908;2023-08-20T04:55:04;26.88;62.68
71039;SHT30;58692;43.212;27.908;2023-08-20T04:57:31;26.81;62.09
71039;SHT30;58692;43.212;27.908;2023-08-20T04:59:57;27.00;61.16
71039;SHT30;58692;43.212;27.908;2023-08-20T05:02:22;27.00;61.16
71039;SHT30;58692;43.212;27.908;2023-08-20T05:04:48;27.23;60.48
71039;SHT30;58692;43.212;27.908;2023-08-20T05:07:14;27.94;58.15
71039;SHT30;58692;43.212;27.908;2023-08-20T05:09:39;28.39;56.87
71039;SHT30;58692;43.212;27.908;2023-08-20T05:12:05;28.58;57.04
71039;SHT30;58692;43.212;27.908;2023-08-20T05:14:30;28.93;56.42
71039;SHT30;58692;43.212;27.908;2023-08-20T05:16:56;29.40;55.29
71039;SHT30;58692;43.212;27.908;2023-08-20T05:19:22;29.64;55.26
71039;SHT30;58692;43.212;27.908;2023-08-20T05:21:47;30.00;54.61
71039;SHT30;58692;43.212;27.908;2023-08-20T05:24:13;30.08;54.47
71039;SHT30;58692;43.212;27.908;2023-08-20T05:26:38;29.85;54.90
71039;SHT30;58692;43.212;27.908;2023-08-20T05:29:04;29.72;54.97
71039;SHT30;58692;43.212;27.908;2023-08-20T05:31:30;30.26;53.41
71039;SHT30;58692;43.212;27.908;2023-08-20T05:33:55;30.01;53.86
71039;SHT30;58692;43.212;27.908;2023-08-20T05:36:21;29.86;54.58
71039;SHT30;58692;43.212;27.908;2023-08-20T05:38:46;29.92;54.11
71039;SHT30;58692;43.212;27.908;2023-08-20T05:41:12;30.36;53.57
71039;SHT30;58692;43.212;27.908;2023-08-20T05:43:37;30.26;53.23
71039;SHT30;58692;43.212;27.908;2023-08-20T05:46:03;30.91;51.70
71039;SHT30;58692;43.212;27.908;2023-08-20T05:48:29;31.17;51.24
71039;SHT30;58692;43.212;27.908;2023-08-20T05:50:55;31.65;50.47
71039;SHT30;58692;43.212;27.908;2023-08-20T05:53:22;31.78;49.93
71039;SHT30;58692;43.212;27.908;2023-08-20T05:55:47;31.71;50.21
71039;SHT30;58692;43.212;27.908;2023-08-20T05:58:13;31.86;49.76
71039;SHT30;58692;43.212;27.908;2023-08-20T06:00:39;32.02;49.86
71039;SHT30;58692;43.212;27.908;2023-08-20T06:03:04;32.41;48.85
71039;SHT30;58692;43.212;27.908;2023-08-20T06:05:30;32.05;49.57
71039;SHT30;58692;43.212;27.908;2023-08-20T06:07:55;32.09;49.58
71039;SHT30;58692;43.212;27.908;2023-08-20T06:10:21;32.67;48.41
71039;SHT30;58692;43.212;27.908;2023-08-20T06:12:46;32.84;47.78
71039;SHT30;58692;43.212;27.908;2023-08-20T06:15:14;33.17;46.98
71039;SHT30;58692;43.212;27.908;2023-08-20T06:17:39;33.00;47.51
71039;SHT30;58692;43.212;27.908;2023-08-20T06:20:05;33.44;46.68
71039;SHT30;58692;43.212;27.908;2023-08-20T06:22:33;33.79;45.87
71039;SHT30;58692;43.212;27.908;2023-08-20T06:24:58;33.55;46.11
71039;SHT30;58692;43.212;27.908;2023-08-20T06:27:24;33.24;45.17
71039;SHT30;58692;43.212;27.908;2023-08-20T06:29:49;33.71;43.95
71039;SHT30;58692;43.212;27.908;2023-08-20T06:32:15;33.34;46.14
71039;SHT30;58692;43.212;27.908;2023-08-20T06:34:40;33.57;45.47
71039;SHT30;58692;43.212;27.908;2023-08-20T06:37:06;33.81;44.56
71039;SHT30;58692;43.212;27.908;2023-08-20T06:39:31;33.73;44.31
71039;SHT30;58692;43.212;27.908;2023-08-20T06:41:57;34.13;43.74
71039;SHT30;58692;43.212;27.908;2023-08-20T06:44:22;34.68;42.71
71039;SHT30;58692;43.212;27.908;2023-08-20T06:46:47;35.00;42.14
71039;SHT30;58692;43.212;27.908;2023-08-20T06:49:13;35.35;41.39
71039;SHT30;58692;43.212;27.908;2023-08-20T06:51:38;34.87;41.70
71039;SHT30;58692;43.212;27.908;2023-08-20T06:54:04;35.11;41.24
71039;SHT30;58692;43.212;27.908;2023-08-20T06:56:32;34.97;41.40
71039;SHT30;58692;43.212;27.908;2023-08-20T06:58:57;35.39;40.35
71039;SHT30;58692;43.212;27.908;2023-08-20T07:01:23;35.66;40.00
71039;SHT30;58692;43.212;27.908;2023-08-20T07:03:48;35.82;39.29
71039;SHT30;58692;43.212;27.908;2023-08-20T07:06:14;36.19;38.77
71039;SHT30;58692;43.212;27.908;2023-08-20T07:08:41;36.16;38.59
71039;SHT30;58692;43.212;27.908;2023-08-20T07:11:07;36.18;38.64
71039;SHT30;58692;43.212;27.908;2023-08-20T07:13:33;36.35;38.34
71039;SHT30;58692;43.212;27.908;2023-08-20T07:15:58;36.54;38.35
71039;SHT30;58692;43.212;27.908;2023-08-20T07:18:24;36.46;38.42
71039;SHT30;58692;43.212;27.908;2023-08-20T07:20:50;36.81;38.21
71039;SHT30;58692;43.212;27.908;2023-08-20T07:23:16;37.13;37.72
71039;SHT30;58692;43.212;27.908;2023-08-20T07:25:42;37.13;37.15
71039;SHT30;58692;43.212;27.908;2023-08-20T07:28:08;37.34;37.00
71039;SHT30;58692;43.212;27.908;2023-08-20T07:30:34;37.25;37.02
71039;SHT30;58692;43.212;27.908;2023-08-20T07:33:00;37.66;36.66
71039;SHT30;58692;43.212;27.908;2023-08-20T07:35:26;38.22;36.14
71039;SHT30;58692;43.212;27.908;2023-08-20T07:37:52;38.54;35.82
71039;SHT30;58692;43.212;27.908;2023-08-20T07:40:18;38.40;35.63
71039;SHT30;58692;43.212;27.908;2023-08-20T07:42:43;38.53;35.51
71039;SHT30;58692;43.212;27.908;2023-08-20T07:45:09;38.63;35.50
71039;SHT30;58692;43.212;27.908;2023-08-20T07:47:36;38.56;35.47
71039;SHT30;58692;43.212;27.908;2023-08-20T07:50:03;38.81;35.18
71039;SHT30;58692;43.212;27.908;2023-08-20T07:52:28;38.83;34.81
71039;SHT30;58692;43.212;27.908;2023-08-20T07:54:54;38.74;35.09
71039;SHT30;58692;43.212;27.908;2023-08-20T07:57:19;38.40;35.72
71039;SHT30;58692;43.212;27.908;2023-08-20T07:59:45;38.56;35.66
71039;SHT30;58692;43.212;27.908;2023-08-20T08:02:10;38.70;35.67
71039;SHT30;58692;43.212;27.908;2023-08-20T08:04:36;38.70;35.72
71039;SHT30;58692;43.212;27.908;2023-08-20T08:07:02;39.10;35.15
71039;SHT30;58692;43.212;27.908;2023-08-20T08:09:30;39.41;35.09
71039;SHT30;58692;43.212;27.908;2023-08-20T08:11:57;39.34;34.89
71039;SHT30;58692;43.212;27.908;2023-08-20T08:14:23;39.55;34.60
71039;SHT30;58692;43.212;27.908;2023-08-20T08:16:49;39.45;35.02
71039;SHT30;58692;43.212;27.908;2023-08-20T08:19:16;40.15;34.37
71039;SHT30;58692;43.212;27.908;2023-08-20T08:21:42;40.05;34.44
71039;SHT30;58692;43.212;27.908;2023-08-20T08:24:09;39.92;34.62
71039;SHT30;58692;43.212;27.908;2023-08-20T08:26:35;40.13;34.56
71039;SHT30;58692;43.212;27.908;2023-08-20T08:29:03;39.99;34.13
71039;SHT30;58692;43.212;27.908;2023-08-20T08:31:28;39.92;33.87
71039;SHT30;58692;43.212;27.908;2023-08-20T08:33:54;40.33;33.81
71039;SHT30;58692;43.212;27.908;2023-08-20T08:36:19;40.51;33.68
71039;SHT30;58692;43.212;27.908;2023-08-20T08:38:45;40.54;33.81
71039;SHT30;58692;43.212;27.908;2023-08-20T08:41:12;40.60;33.42
71039;SHT30;58692;43.212;27.908;2023-08-20T08:43:38;40.64;32.99
71039;SHT30;58692;43.212;27.908;2023-08-20T08:46:07;40.57;32.78
71039;SHT30;58692;43.212;27.908;2023-08-20T08:48:35;40.32;33.18
71039;SHT30;58692;43.212;27.908;2023-08-20T08:51:01;40.47;32.92
71039;SHT30;58692;43.212;27.908;2023-08-20T08:53:27;41.02;32.31
71039;SHT30;58692;43.212;27.908;2023-08-20T08:55:55;40.63;32.62
71039;SHT30;58692;43.212;27.908;2023-08-20T08:58:20;40.61;32.74
71039;SHT30;58692;43.212;27.908;2023-08-20T09:00:46;40.80;32.64
71039;SHT30;58692;43.212;27.908;2023-08-20T09:03:11;40.73;32.50
71039;SHT30;58692;43.212;27.908;2023-08-20T09:05:56;40.70;31.52
71039;SHT30;58692;43.212;27.908;2023-08-20T09:08:31;41.20;31.31
71039;SHT30;58692;43.212;27.908;2023-08-20T09:10:58;41.14;31.01
71039;SHT30;58692;43.212;27.908;2023-08-20T09:13:26;41.41;30.87
71039;SHT30;58692;43.212;27.908;2023-08-20T09:15:52;41.18;31.24
71039;SHT30;58692;43.212;27.908;2023-08-20T09:18:18;41.01;31.25
71039;SHT30;58692;43.212;27.908;2023-08-20T09:20:43;41.15;31.07
71039;SHT30;58692;43.212;27.908;2023-08-20T09:23:12;41.25;30.75
71039;SHT30;58692;43.212;27.908;2023-08-20T09:25:39;41.64;30.45
71039;SHT30;58692;43.212;27.908;2023-08-20T09:28:05;41.71;30.08
71039;SHT30;58692;43.212;27.908;2023-08-20T09:30:31;41.38;30.37
71039;SHT30;58692;43.212;27.908;2023-08-20T09:33:12;41.21;30.47
71039;SHT30;58692;43.212;27.908;2023-08-20T09:35:49;40.76;37.57
71039;SHT30;58692;43.212;27.908;2023-08-20T09:38:14;39.35;40.84
71039;SHT30;58692;43.212;27.908;2023-08-20T09:40:40;39.65;37.44
71039;SHT30;58692;43.212;27.908;2023-08-20T09:43:06;38.84;36.92
71039;SHT30;58692;43.212;27.908;2023-08-20T09:45:34;38.97;34.91
71039;SHT30;58692;43.212;27.908;2023-08-20T09:48:04;39.84;33.50
71039;SHT30;58692;43.212;27.908;2023-08-20T09:50:31;40.33;32.12
71039;SHT30;58692;43.212;27.908;2023-08-20T09:53:06;41.15;31.87
71039;SHT30;58692;43.212;27.908;2023-08-20T09:55:35;40.86;32.95
71039;SHT30;58692;43.212;27.908;2023-08-20T09:58:04;40.46;33.20
71039;SHT30;58692;43.212;27.908;2023-08-20T10:00:33;40.73;32.44
71039;SHT30;58692;43.212;27.908;2023-08-20T10:02:59;40.35;34.97
71039;SHT30;58692;43.212;27.908;2023-08-20T10:05:25;40.33;34.81
71039;SHT30;58692;43.212;27.908;2023-08-20T10:07:50;38.90;37.05
71039;SHT30;58692;43.212;27.908;2023-08-20T10:10:17;39.05;37.45
71039;SHT30;58692;43.212;27.908;2023-08-20T10:12:43;39.34;36.85
71039;SHT30;58692;43.212;27.908;2023-08-20T10:15:12;39.13;37.13
71039;SHT30;58692;43.212;27.908;2023-08-20T10:17:38;39.11;36.83
71039;SHT30;58692;43.212;27.908;2023-08-20T10:20:05;38.49;36.58
71039;SHT30;58692;43.212;27.908;2023-08-20T10:22:36;38.15;40.39
71039;SHT30;58692;43.212;27.908;2023-08-20T10:25:06;37.86;41.81
71039;SHT30;58692;43.212;27.908;2023-08-20T10:27:33;38.13;38.35
71039;SHT30;58692;43.212;27.908;2023-08-20T10:30:00;38.66;38.60
71039;SHT30;58692;43.212;27.908;2023-08-20T10:32:44;38.39;40.41
71039;SHT30;58692;43.212;27.908;2023-08-20T10:35:11;37.86;40.69
71039;SHT30;58692;43.212;27.908;2023-08-20T10:37:37;38.09;41.38
71039;SHT30;58692;43.212;27.908;2023-08-20T10:40:05;37.76;36.65
71039;SHT30;58692;43.212;27.908;2023-08-20T10:42:31;38.05;34.88
71039;SHT30;58692;43.212;27.908;2023-08-20T10:45:06;37.86;36.10
71039;SHT30;58692;43.212;27.908;2023-08-20T10:47:50;37.96;33.84
71039;SHT30;58692;43.212;27.908;2023-08-20T10:50:17;38.50;36.22
71039;SHT30;58692;43.212;27.908;2023-08-20T10:52:55;38.66;34.96
71039;SHT30;58692;43.212;27.908;2023-08-20T10:55:22;38.29;34.44
71039;SHT30;58692;43.212;27.908;2023-08-20T10:57:55;37.86;33.86
71039;SHT30;58692;43.212;27.908;2023-08-20T11:00:21;38.62;33.16
71039;SHT30;58692;43.212;27.908;2023-08-20T11:02:46;39.28;32.73
71039;SHT30;58692;43.212;27.908;2023-08-20T11:05:17;39.17;32.46
71039;SHT30;58692;43.212;27.908;2023-08-20T11:07:45;38.53;33.13
71039;SHT30;58692;43.212;27.908;2023-08-20T11:10:14;38.22;34.09
71039;SHT30;58692;43.212;27.908;2023-08-20T11:12:40;38.13;37.50
71039;SHT30;58692;43.212;27.908;2023-08-20T11:15:07;37.30;38.62
71039;SHT30;58692;43.212;27.908;2023-08-20T11:17:32;36.98;39.72
71039;SHT30;58692;43.212;27.908;2023-08-20T11:19:58;37.10;40.39
71039;SHT30;58692;43.212;27.908;2023-08-20T11:22:23;37.00;40.15
71039;SHT30;58692;43.212;27.908;2023-08-20T11:24:49;36.83;40.69
71039;SHT30;58692;43.212;27.908;2023-08-20T11:27:14;36.97;40.84
71039;SHT30;58692;43.212;27.908;2023-08-20T11:29:43;36.94;40.64
71039;SHT30;58692;43.212;27.908;2023-08-20T11:32:09;36.08;41.09
71039;SHT30;58692;43.212;27.908;2023-08-20T11:34:36;36.73;40.40
71039;SHT30;58692;43.212;27.908;2023-08-20T11:37:04;36.41;40.75
71039;SHT30;58692;43.212;27.908;2023-08-20T11:39:30;36.39;39.71
71039;SHT30;58692;43.212;27.908;2023-08-20T11:41:55;36.47;40.92
71039;SHT30;58692;43.212;27.908;2023-08-20T11:44:22;36.97;37.37
71039;SHT30;58692;43.212;27.908;2023-08-20T11:46:48;36.66;38.99
71039;SHT30;58692;43.212;27.908;2023-08-20T11:49:14;36.41;39.03
71039;SHT30;58692;43.212;27.908;2023-08-20T11:51:42;36.09;39.33
71039;SHT30;58692;43.212;27.908;2023-08-20T11:54:11;36.50;38.51
71039;SHT30;58692;43.212;27.908;2023-08-20T11:56:45;36.41;39.52
71039;SHT30;58692;43.212;27.908;2023-08-20T11:59:12;36.49;39.05
71039;SHT30;58692;43.212;27.908;2023-08-20T12:01:38;36.70;38.57
71039;SHT30;58692;43.212;27.908;2023-08-20T12:04:04;37.02;38.29
71039;SHT30;58692;43.212;27.908;2023-08-20T12:06:31;37.22;37.69
71039;SHT30;58692;43.212;27.908;2023-08-20T12:08:57;36.77;38.11
71039;SHT30;58692;43.212;27.908;2023-08-20T12:11:27;36.80;39.07
71039;SHT30;58692;43.212;27.908;2023-08-20T12:13:52;36.15;40.30
71039;SHT30;58692;43.212;27.908;2023-08-20T12:16:18;35.92;40.17
71039;SHT30;58692;43.212;27.908;2023-08-20T12:18:46;36.12;40.20
71039;SHT30;58692;43.212;27.908;2023-08-20T12:21:12;35.69;39.80
71039;SHT30;58692;43.212;27.908;2023-08-20T12:23:37;35.79;40.62
71039;SHT30;58692;43.212;27.908;2023-08-20T12:26:03;35.34;41.63
71039;SHT30;58692;43.212;27.908;2023-08-20T12:28:28;34.88;42.80
71039;SHT30;58692;43.212;27.908;2023-08-20T12:30:54;34.33;44.01
71039;SHT30;58692;43.212;27.908;2023-08-20T12:33:19;33.82;45.34
71039;SHT30;58692;43.212;27.908;2023-08-20T12:35:46;33.27;46.64
71039;SHT30;58692;43.212;27.908;2023-08-20T12:38:12;32.90;47.59
71039;SHT30;58692;43.212;27.908;2023-08-20T12:40:37;32.96;47.98
71039;SHT30;58692;43.212;27.908;2023-08-20T12:43:03;32.73;48.43
71039;SHT30;58692;43.212;27.908;2023-08-20T12:45:29;32.64;48.67
71039;SHT30;58692;43.212;27.908;2023-08-20T12:47:55;32.76;48.76
71039;SHT30;58692;43.212;27.908;2023-08-20T12:50:20;32.57;49.24
71039;SHT30;58692;43.212;27.908;2023-08-20T12:52:46;32.56;49.00
71039;SHT30;58692;43.212;27.908;2023-08-20T12:55:12;32.57;48.96
71039;SHT30;58692;43.212;27.908;2023-08-20T12:57:53;32.32;49.55
71039;SHT30;58692;43.212;27.908;2023-08-20T13:00:20;32.35;49.31
71039;SHT30;58692;43.212;27.908;2023-08-20T13:02:46;32.33;49.27
71039;SHT30;58692;43.212;27.908;2023-08-20T13:05:12;32.08;49.99
71039;SHT30;58692;43.212;27.908;2023-08-20T13:07:38;32.12;50.66
71039;SHT30;58692;43.212;27.908;2023-08-20T13:10:04;32.25;49.90
71039;SHT30;58692;43.212;27.908;2023-08-20T13:12:32;32.15;50.12
71039;SHT30;58692;43.212;27.908;2023-08-20T13:14:58;32.25;50.34
71039;SHT30;58692;43.212;27.908;2023-08-20T13:17:24;32.04;50.79
71039;SHT30;58692;43.212;27.908;2023-08-20T13:19:49;31.88;51.33
71039;SHT30;58692;43.212;27.908;2023-08-20T13:22:15;31.74;52.23
71039;SHT30;58692;43.212;27.908;2023-08-20T13:24:40;31.58;53.11
71039;SHT30;58692;43.212;27.908;2023-08-20T13:27:06;31.57;53.83
71039;SHT30;58692;43.212;27.908;2023-08-20T13:29:32;31.64;53.73
71039;SHT30;58692;43.212;27.908;2023-08-20T13:31:57;31.54;54.09
71039;SHT30;58692;43.212;27.908;2023-08-20T13:34:23;31.44;54.62
71039;SHT30;58692;43.212;27.908;2023-08-20T13:36:48;31.17;55.03
71039;SHT30;58692;43.212;27.908;2023-08-20T13:39:14;31.13;55.55
71039;SHT30;58692;43.212;27.908;2023-08-20T13:41:40;31.20;55.20
71039;SHT30;58692;43.212;27.908;2023-08-20T13:44:06;31.18;56.03
71039;SHT30;58692;43.212;27.908;2023-08-20T13:46:33;31.20;55.27
71039;SHT30;58692;43.212;27.908;2023-08-20T13:48:59;31.07;56.14
71039;SHT30;58692;43.212;27.908;2023-08-20T13:51:24;31.10;56.19
71039;SHT30;58692;43.212;27.908;2023-08-20T13:53:50;31.01;56.46
71039;SHT30;58692;43.212;27.908;2023-08-20T13:56:16;31.28;56.29
71039;SHT30;58692;43.212;27.908;2023-08-20T13:58:42;31.11;56.21
71039;SHT30;58692;43.212;27.908;2023-08-20T14:01:07;31.20;56.31
71039;SHT30;58692;43.212;27.908;2023-08-20T14:03:33;31.24;56.08
71039;SHT30;58692;43.212;27.908;2023-08-20T14:05:58;31.35;55.91
71039;SHT30;58692;43.212;27.908;2023-08-20T14:08:24;31.52;55.82
71039;SHT30;58692;43.212;27.908;2023-08-20T14:10:49;31.42;56.30
71039;SHT30;58692;43.212;27.908;2023-08-20T14:13:15;30.96;57.34
71039;SHT30;58692;43.212;27.908;2023-08-20T14:15:40;30.84;57.18
71039;SHT30;58692;43.212;27.908;2023-08-20T14:18:06;30.93;57.98
71039;SHT30;58692;43.212;27.908;2023-08-20T14:20:31;31.13;57.59
71039;SHT30;58692;43.212;27.908;2023-08-20T14:22:56;31.11;57.94
71039;SHT30;58692;43.212;27.908;2023-08-20T14:25:22;31.03;57.96
71039;SHT30;58692;43.212;27.908;2023-08-20T14:27:48;31.27;58.25
71039;SHT30;58692;43.212;27.908;2023-08-20T14:30:13;31.37;58.13
71039;SHT30;58692;43.212;27.908;2023-08-20T14:32:39;30.87;59.10
71039;SHT30;58692;43.212;27.908;2023-08-20T14:35:05;30.93;59.30
71039;SHT30;58692;43.212;27.908;2023-08-20T14:37:30;30.93;59.26
71039;SHT30;58692;43.212;27.908;2023-08-20T14:39:56;30.70;59.54
71039;SHT30;58692;43.212;27.908;2023-08-20T14:42:21;30.97;59.48
71039;SHT30;58692;43.212;27.908;2023-08-20T14:44:47;30.94;59.54
71039;SHT30;58692;43.212;27.908;2023-08-20T14:47:13;30.86;59.50
71039;SHT30;58692;43.212;27.908;2023-08-20T14:49:38;30.86;59.63
71039;SHT30;58692;43.212;27.908;2023-08-20T14:52:04;31.10;58.94
71039;SHT30;58692;43.212;27.908;2023-08-20T14:54:30;31.20;58.01
71039;SHT30;58692;43.212;27.908;2023-08-20T14:56:55;31.33;58.09
71039;SHT30;58692;43.212;27.908;2023-08-20T14:59:21;31.42;57.90
71039;SHT30;58692;43.212;27.908;2023-08-20T15:01:46;31.24;58.40
71039;SHT30;58692;43.212;27.908;2023-08-20T15:04:11;31.26;57.80
71039;SHT30;58692;43.212;27.908;2023-08-20T15:06:37;31.16;58.53
71039;SHT30;58692;43.212;27.908;2023-08-20T15:09:02;31.33;57.86
71039;SHT30;58692;43.212;27.908;2023-08-20T15:11:29;31.28;57.73
71039;SHT30;58692;43.212;27.908;2023-08-20T15:13:54;31.20;57.43
71039;SHT30;58692;43.212;27.908;2023-08-20T15:16:19;31.14;57.91
71039;SHT30;58692;43.212;27.908;2023-08-20T15:18:45;31.16;58.01
71039;SHT30;58692;43.212;27.908;2023-08-20T15:21:10;31.18;57.90